createdAt,value
2022-10-24T00:01:10.495Z,1.20
2022-10-24T00:03:56.234Z,1.50
2022-10-24T00:06:41.960Z,1.20
2022-10-24T00:09:27.416Z,1.60
2022-10-24T00:12:13.205Z,1.38
2022-10-24T00:14:58.993Z,1.52
2022-10-24T00:17:44.749Z,1.30
2022-10-24T00:20:30.288Z,1.50
2022-10-24T00:23:15.788Z,1.42
2022-10-24T00:26:02.148Z,1.58
2022-10-24T00:28:47.754Z,1.30
2022-10-24T00:31:33.708Z,1.70
2022-10-24T00:34:19.100Z,1.70
2022-10-24T00:37:05.048Z,1.63
2022-10-24T00:39:50.373Z,2.17
2022-10-24T00:42:35.880Z,1.50
2022-10-24T00:45:43.829Z,1.95
2022-10-24T00:48:36.144Z,1.67
2022-10-24T00:54:13.334Z,2.00
2022-10-24T00:57:20.679Z,1.90
2022-10-24T01:00:22.772Z,2.25
2022-10-24T01:03:10.049Z,2.00
2022-10-24T01:06:20.560Z,1.60
2022-10-24T01:09:19.127Z,2.22
2022-10-24T01:12:23.217Z,1.73
2022-10-24T01:15:23.928Z,1.95
2022-10-24T01:18:28.281Z,1.60
2022-10-24T01:21:30.930Z,1.65
2022-10-24T01:24:34.459Z,2.08
2022-10-24T01:27:47.298Z,1.98
2022-10-24T01:33:30.227Z,1.50
2022-10-24T01:36:30.041Z,1.85
2022-10-24T01:39:19.918Z,1.60
2022-10-24T01:42:07.496Z,1.65
2022-10-24T01:44:57.000Z,1.63
2022-10-24T01:47:48.106Z,1.35
2022-10-24T01:50:36.398Z,1.38
2022-10-24T01:53:25.102Z,1.52
2022-10-24T01:56:11.015Z,1.92
2022-10-24T01:59:30.313Z,1.50
2022-10-24T02:02:35.382Z,1.92
2022-10-24T02:05:32.649Z,1.65
2022-10-24T02:08:25.157Z,1.40
2022-10-24T02:11:11.419Z,1.52
2022-10-24T02:14:21.073Z,1.40
2022-10-24T02:17:07.343Z,1.40
2022-10-24T02:19:54.124Z,2.05
2022-10-24T02:22:51.611Z,1.40
2022-10-24T02:25:39.142Z,1.40
2022-10-24T02:28:29.353Z,1.20
2022-10-24T02:31:21.814Z,1.65
2022-10-24T02:34:09.517Z,1.30
2022-10-24T02:36:55.994Z,1.30
2022-10-24T02:39:46.344Z,1.63
2022-10-24T02:42:33.701Z,1.20
2022-10-24T02:45:20.625Z,1.33
2022-10-24T02:48:11.148Z,1.48
2022-10-24T02:50:56.765Z,1.40
2022-10-24T02:53:42.146Z,1.40
2022-10-24T02:56:28.598Z,1.33
2022-10-24T02:59:14.055Z,1.30
2022-10-24T03:01:59.186Z,1.50
2022-10-24T03:04:45.060Z,1.40
2022-10-24T03:10:20.790Z,1.60
2022-10-24T03:13:06.171Z,1.38
2022-10-24T03:15:51.732Z,1.17
2022-10-24T03:18:38.337Z,1.35
2022-10-24T03:21:24.065Z,1.15
2022-10-24T03:24:10.030Z,1.10
2022-10-24T03:26:55.711Z,1.00
2022-10-24T03:29:41.584Z,1.30
2022-10-24T03:35:17.958Z,1.20
2022-10-24T03:38:03.701Z,1.40
2022-10-24T03:40:49.790Z,1.08
2022-10-24T03:43:35.475Z,1.08
2022-10-24T03:46:21.143Z,1.02
2022-10-24T03:49:06.441Z,1.00
2022-10-24T03:51:52.335Z,1.05
2022-10-24T03:54:38.835Z,1.10
2022-10-24T03:57:24.269Z,1.13
2022-10-24T04:00:10.406Z,1.00
2022-10-24T04:02:56.608Z,1.13
2022-10-24T04:05:42.158Z,0.90
2022-10-24T04:08:28.044Z,0.90
2022-10-24T04:11:13.455Z,1.10
2022-10-24T04:16:51.289Z,1.10
2022-10-24T04:19:36.840Z,1.00
2022-10-24T04:22:22.681Z,0.90
2022-10-24T04:25:08.548Z,0.90
2022-10-24T04:27:53.843Z,0.95
2022-10-24T04:30:39.640Z,1.10
2022-10-24T04:33:26.185Z,0.95
2022-10-24T04:36:11.844Z,0.88
2022-10-24T04:38:57.375Z,0.80
2022-10-24T04:41:42.819Z,0.90
2022-10-24T04:44:28.545Z,1.00
2022-10-24T04:47:14.697Z,1.35
2022-10-24T04:49:59.964Z,0.95
2022-10-24T04:52:45.269Z,1.17
2022-10-24T04:55:31.093Z,1.00
2022-10-24T04:58:16.477Z,1.10
2022-10-24T05:01:02.232Z,1.00
2022-10-24T05:03:47.979Z,1.00
2022-10-24T05:06:33.661Z,0.85
2022-10-24T05:09:18.953Z,1.15
2022-10-24T05:12:05.029Z,0.70
2022-10-24T05:14:50.917Z,0.65
2022-10-24T05:17:36.235Z,1.33
2022-10-24T05:20:21.946Z,1.00
2022-10-24T05:23:07.503Z,0.93
2022-10-24T05:25:53.833Z,0.75
2022-10-24T05:28:39.240Z,0.93
2022-10-24T05:31:24.994Z,1.08
2022-10-24T05:34:10.674Z,0.90
2022-10-24T05:36:56.175Z,1.10
2022-10-24T05:39:41.706Z,0.90
2022-10-24T05:42:27.365Z,0.93
2022-10-24T05:45:12.716Z,1.15
2022-10-24T05:47:58.243Z,0.80
2022-10-24T05:50:43.657Z,0.90
2022-10-24T05:53:29.227Z,0.80
2022-10-24T05:56:15.396Z,1.05
2022-10-24T05:59:01.096Z,0.95
2022-10-24T06:01:46.907Z,0.90
2022-10-24T06:04:32.136Z,0.73
2022-10-24T06:07:18.565Z,0.77
2022-10-24T06:10:06.052Z,1.00
2022-10-24T06:12:51.500Z,0.93
2022-10-24T06:15:37.109Z,0.70
2022-10-24T06:18:22.816Z,0.88
2022-10-24T06:21:09.209Z,0.77
2022-10-24T06:23:55.339Z,1.20
2022-10-24T06:26:40.903Z,1.15
2022-10-24T06:29:26.449Z,1.60
2022-10-24T06:32:11.822Z,0.90
2022-10-24T06:34:57.216Z,0.90
2022-10-24T06:37:47.146Z,0.75
2022-10-24T06:40:33.888Z,0.70
2022-10-24T06:43:19.643Z,1.05
2022-10-24T06:46:10.193Z,1.08
2022-10-24T06:48:56.138Z,0.95
2022-10-24T06:51:41.976Z,0.98
2022-10-24T06:54:30.148Z,0.70
2022-10-24T06:57:15.876Z,1.20
2022-10-24T07:00:01.548Z,1.05
2022-10-24T07:02:47.381Z,0.93
2022-10-24T07:05:32.676Z,1.45
2022-10-24T07:08:18.299Z,1.45
2022-10-24T07:11:03.606Z,1.35
2022-10-24T07:13:49.426Z,0.90
2022-10-24T07:16:35.042Z,1.00
2022-10-24T07:19:20.245Z,1.20
2022-10-24T07:22:06.853Z,0.98
2022-10-24T07:24:54.131Z,1.20
2022-10-24T07:27:40.340Z,1.10
2022-10-24T07:30:26.084Z,1.38
2022-10-24T07:33:11.415Z,1.05
2022-10-24T07:35:57.261Z,1.00
2022-10-24T07:38:42.656Z,1.20
2022-10-24T07:41:30.406Z,1.15
2022-10-24T07:44:15.629Z,1.08
2022-10-24T07:47:01.406Z,1.23
2022-10-24T07:49:46.761Z,0.85
2022-10-24T07:52:32.677Z,1.10
2022-10-24T07:55:18.321Z,0.80
2022-10-24T07:58:03.898Z,1.42
2022-10-24T08:00:49.262Z,1.00
2022-10-24T08:03:35.576Z,1.17
2022-10-24T08:06:28.716Z,1.00
2022-10-24T08:09:14.463Z,1.10
2022-10-24T08:11:59.817Z,1.20
2022-10-24T08:14:46.468Z,1.30
2022-10-24T08:17:32.087Z,1.27
2022-10-24T08:20:17.634Z,1.13
2022-10-24T08:23:03.228Z,0.90
2022-10-24T08:25:48.370Z,1.05
2022-10-24T08:28:34.421Z,1.40
2022-10-24T08:31:22.056Z,1.20
2022-10-24T08:34:07.568Z,0.93
2022-10-24T08:36:53.461Z,0.93
2022-10-24T08:39:39.281Z,1.13
2022-10-24T08:42:25.481Z,1.33
2022-10-24T08:45:30.305Z,1.00
2022-10-24T08:48:21.984Z,1.05
2022-10-24T08:51:24.522Z,1.20
2022-10-24T08:54:16.604Z,1.23
2022-10-24T08:57:02.115Z,0.90
2022-10-24T08:59:47.813Z,1.40
2022-10-24T09:02:38.133Z,1.15
2022-10-24T09:05:28.216Z,0.90
2022-10-24T09:08:30.403Z,1.30
2022-10-24T09:11:24.528Z,1.10
2022-10-24T09:14:19.060Z,1.35
2022-10-24T09:17:25.091Z,1.10
2022-10-24T09:20:33.262Z,0.98
2022-10-24T09:23:20.777Z,1.10
2022-10-24T09:26:13.752Z,0.80
2022-10-24T09:28:59.000Z,1.10
2022-10-24T09:31:44.441Z,1.25
2022-10-24T09:34:30.028Z,1.10
2022-10-24T09:37:44.483Z,1.10
2022-10-24T09:40:35.096Z,1.17
2022-10-24T09:43:23.416Z,1.40
2022-10-24T09:46:12.549Z,1.48
2022-10-24T09:49:04.135Z,1.20
2022-10-24T09:52:18.817Z,1.17
2022-10-24T09:55:24.096Z,1.38
2022-10-24T09:58:19.775Z,1.08
2022-10-24T10:01:06.511Z,1.08
2022-10-24T10:04:08.916Z,1.52
2022-10-24T10:06:55.995Z,1.00
2022-10-24T10:09:54.106Z,1.05
2022-10-24T10:12:42.958Z,1.38
2022-10-24T10:15:46.184Z,1.17
2022-10-24T10:18:38.966Z,1.00
2022-10-24T10:21:25.233Z,1.23
2022-10-24T10:24:38.397Z,1.00
2022-10-24T10:27:39.533Z,1.05
2022-10-24T10:30:25.324Z,1.60
2022-10-24T10:33:27.451Z,1.13
2022-10-24T10:39:19.657Z,0.85
2022-10-24T10:42:35.871Z,1.02
2022-10-24T10:45:45.361Z,1.55
2022-10-24T10:48:55.577Z,1.15
2022-10-24T10:52:02.581Z,1.08
2022-10-24T10:55:14.967Z,1.10
2022-10-24T10:58:29.687Z,1.10
2022-10-24T11:01:33.025Z,1.08
2022-10-24T11:04:38.597Z,1.10
2022-10-24T11:07:42.215Z,1.23
2022-10-24T11:10:41.454Z,0.80
2022-10-24T11:13:40.017Z,1.10
2022-10-24T11:16:29.650Z,0.70
2022-10-24T11:19:32.092Z,1.10
2022-10-24T11:22:23.291Z,1.10
2022-10-24T11:25:51.352Z,1.20
2022-10-24T11:29:03.000Z,0.90
2022-10-24T11:31:52.877Z,0.82
2022-10-24T11:34:50.658Z,1.13
2022-10-24T11:37:42.611Z,0.80
2022-10-24T11:40:29.871Z,1.10
2022-10-24T11:43:40.294Z,1.10
2022-10-24T11:46:34.396Z,0.90
2022-10-24T11:49:32.907Z,0.80
2022-10-24T11:52:26.661Z,0.90
2022-10-24T11:55:23.770Z,1.17
2022-10-24T11:58:15.907Z,0.90
2022-10-24T12:01:10.254Z,0.90
2022-10-24T12:04:26.839Z,1.00
2022-10-24T12:07:49.406Z,0.80
2022-10-24T12:11:13.437Z,0.90
2022-10-24T12:14:26.738Z,0.98
2022-10-24T12:17:18.847Z,0.90
2022-10-24T12:20:11.300Z,0.93
2022-10-24T12:22:57.917Z,0.77
2022-10-24T12:25:47.279Z,0.60
2022-10-24T12:28:34.315Z,1.20
2022-10-24T12:31:26.497Z,0.93
2022-10-24T12:34:15.633Z,1.00
2022-10-24T12:37:19.100Z,0.70
2022-10-24T12:41:07.123Z,0.95
2022-10-24T12:44:32.371Z,0.93
2022-10-24T12:47:39.129Z,1.35
2022-10-24T12:50:26.100Z,0.70
2022-10-24T12:53:36.328Z,0.70
2022-10-24T12:56:21.926Z,0.90
2022-10-24T12:59:25.347Z,0.73
2022-10-24T13:02:10.924Z,0.70
2022-10-24T13:05:17.653Z,1.10
2022-10-24T13:08:41.054Z,1.30
2022-10-24T13:12:04.173Z,0.93
2022-10-24T13:15:08.163Z,1.17
2022-10-24T13:18:34.709Z,1.00
2022-10-24T13:21:29.177Z,0.90
2022-10-24T13:24:19.767Z,0.85
2022-10-24T13:27:12.745Z,0.90
2022-10-24T13:30:00.762Z,0.90
2022-10-24T13:32:46.444Z,0.70
2022-10-24T13:35:32.579Z,0.70
2022-10-24T13:38:18.344Z,0.65
2022-10-24T13:41:05.447Z,0.82
2022-10-24T13:43:53.409Z,0.73
2022-10-24T13:46:53.382Z,0.80
2022-10-24T13:50:14.900Z,0.77
2022-10-24T13:53:12.504Z,0.90
2022-10-24T13:56:03.624Z,0.63
2022-10-24T13:58:49.259Z,0.52
2022-10-24T14:01:36.432Z,0.60
2022-10-24T14:04:22.035Z,0.70
2022-10-24T14:07:08.932Z,0.70
2022-10-24T14:09:59.956Z,0.60
2022-10-24T14:12:46.064Z,0.70
2022-10-24T14:15:33.197Z,0.63
2022-10-24T14:18:20.971Z,0.70
2022-10-24T14:21:15.648Z,0.60
2022-10-24T14:24:02.268Z,0.80
2022-10-24T14:26:51.599Z,0.60
2022-10-24T14:29:37.218Z,0.82
2022-10-24T14:32:24.836Z,0.90
2022-10-24T14:35:14.737Z,1.00
2022-10-24T14:38:00.521Z,0.82
2022-10-24T14:40:49.513Z,0.70
2022-10-24T14:43:42.292Z,0.80
2022-10-24T14:46:40.452Z,0.98
2022-10-24T14:49:33.463Z,1.05
2022-10-24T14:52:24.938Z,1.00
2022-10-24T14:55:23.484Z,1.08
2022-10-24T14:58:22.584Z,1.25
2022-10-24T15:01:18.055Z,1.10
2022-10-24T15:04:05.221Z,1.48
2022-10-24T15:06:55.146Z,1.33
2022-10-24T15:09:58.563Z,1.00
2022-10-24T15:12:58.348Z,1.20
2022-10-24T15:15:43.480Z,1.10
2022-10-24T15:18:41.168Z,1.13
2022-10-24T15:21:33.866Z,0.93
2022-10-24T15:24:25.419Z,1.30
2022-10-24T15:27:12.767Z,0.90
2022-10-24T15:29:58.283Z,1.10
2022-10-24T15:32:44.170Z,1.13
2022-10-24T15:35:34.020Z,1.40
2022-10-24T15:38:19.560Z,1.10
2022-10-24T15:41:05.300Z,1.17
2022-10-24T15:43:50.446Z,1.88
2022-10-24T15:46:36.331Z,1.13
2022-10-24T15:49:21.636Z,1.20
2022-10-24T15:52:13.139Z,1.30
2022-10-24T15:55:00.408Z,1.27
2022-10-24T15:57:46.691Z,1.40
2022-10-24T16:00:33.045Z,1.15
2022-10-24T16:03:22.975Z,1.00
2022-10-24T16:06:08.502Z,1.10
2022-10-24T16:08:54.728Z,1.40
2022-10-24T16:11:40.369Z,1.38
2022-10-24T16:14:26.318Z,1.30
2022-10-24T16:17:11.646Z,1.58
2022-10-24T16:19:57.720Z,1.52
2022-10-24T16:22:43.482Z,1.50
2022-10-24T16:25:32.528Z,1.77
2022-10-24T16:28:22.758Z,1.52
2022-10-24T16:31:11.187Z,1.40
2022-10-24T16:33:58.071Z,1.10
2022-10-24T16:36:43.685Z,1.45
2022-10-24T16:39:29.156Z,1.20
2022-10-24T16:42:14.453Z,1.80
2022-10-24T16:44:59.989Z,1.63
2022-10-24T16:47:47.691Z,2.20
2022-10-24T16:50:33.040Z,1.80
2022-10-24T16:53:19.423Z,1.83
2022-10-24T16:56:04.615Z,1.65
2022-10-24T16:58:50.157Z,1.33
2022-10-24T17:01:35.809Z,1.50
2022-10-24T17:04:21.236Z,1.00
2022-10-24T17:07:06.544Z,1.60
2022-10-24T17:09:52.156Z,1.42
2022-10-24T17:12:39.835Z,1.30
2022-10-24T17:15:25.516Z,1.23
2022-10-24T17:18:12.149Z,1.60
2022-10-24T17:20:58.908Z,1.38
2022-10-24T17:23:44.327Z,1.20
2022-10-24T17:26:30.065Z,1.08
2022-10-24T17:29:23.352Z,1.20
2022-10-24T17:32:12.908Z,1.20
2022-10-24T17:35:00.289Z,1.23
2022-10-24T17:38:07.714Z,1.30
2022-10-24T17:40:57.109Z,1.63
2022-10-24T17:43:42.858Z,1.52
2022-10-24T17:46:28.209Z,1.20
2022-10-24T17:49:20.730Z,1.58
2022-10-24T17:52:07.670Z,1.55
2022-10-24T17:54:53.090Z,1.63
2022-10-24T17:57:38.451Z,1.23
2022-10-24T18:00:24.226Z,1.50
2022-10-24T18:03:09.834Z,1.27
2022-10-24T18:06:06.381Z,1.20
2022-10-24T18:08:55.960Z,1.52
2022-10-24T18:11:43.359Z,1.30
2022-10-24T18:14:28.774Z,1.52
2022-10-24T18:17:14.898Z,1.50
2022-10-24T18:20:00.700Z,1.42
2022-10-24T18:22:46.468Z,1.50
2022-10-24T18:25:32.200Z,1.90
2022-10-24T18:28:17.796Z,1.55
2022-10-24T18:31:20.684Z,1.60
2022-10-24T18:34:08.505Z,1.45
2022-10-24T18:36:54.360Z,1.45
2022-10-24T18:39:39.979Z,1.50
2022-10-24T18:42:49.275Z,1.38
2022-10-24T18:45:35.206Z,2.17
2022-10-24T18:48:21.106Z,1.63
2022-10-24T18:51:17.650Z,1.63
2022-10-24T18:54:09.673Z,1.40
2022-10-24T18:56:57.134Z,1.60
2022-10-24T18:59:42.422Z,1.63
2022-10-24T19:02:37.883Z,1.52
2022-10-24T19:05:36.185Z,1.73
2022-10-24T19:08:23.857Z,1.75
2022-10-24T19:13:54.733Z,2.03
2022-10-24T19:16:41.010Z,1.95
2022-10-24T19:19:30.221Z,2.05
2022-10-24T19:22:15.823Z,1.70
2022-10-24T19:25:01.349Z,1.70
2022-10-24T19:27:46.726Z,1.58
2022-10-24T19:30:32.214Z,1.63
2022-10-24T19:33:17.697Z,1.70
2022-10-24T19:36:04.224Z,1.73
2022-10-24T19:38:55.529Z,1.55
2022-10-24T19:41:40.764Z,1.83
2022-10-24T19:44:26.157Z,1.98
2022-10-24T19:47:11.948Z,1.65
2022-10-24T19:49:57.347Z,1.65
2022-10-24T19:52:43.027Z,1.70
2022-10-24T19:55:28.784Z,1.90
2022-10-24T19:58:20.080Z,1.90
2022-10-24T20:01:07.434Z,1.67
2022-10-24T20:03:53.172Z,1.60
2022-10-24T20:06:38.402Z,1.70
2022-10-24T20:09:23.897Z,1.85
2022-10-24T20:12:09.881Z,1.77
2022-10-24T20:14:55.240Z,2.00
2022-10-24T20:17:40.786Z,1.90
2022-10-24T20:20:26.391Z,1.80
2022-10-24T20:23:12.045Z,1.90
2022-10-24T20:26:01.569Z,1.77
2022-10-24T20:28:50.085Z,1.83
2022-10-24T20:31:43.202Z,1.98
2022-10-24T20:34:28.665Z,1.80
2022-10-24T20:37:14.147Z,2.38
2022-10-24T20:39:59.375Z,2.13
2022-10-24T20:42:45.151Z,1.98
2022-10-24T20:45:38.419Z,1.95
2022-10-24T20:48:23.920Z,1.77
2022-10-24T20:51:13.861Z,1.90
2022-10-24T20:53:59.119Z,1.70
2022-10-24T20:56:44.471Z,1.70
2022-10-24T20:59:30.114Z,1.90
2022-10-24T21:02:15.585Z,1.77
2022-10-24T21:05:01.222Z,1.63
2022-10-24T21:07:50.243Z,1.75
2022-10-24T21:10:35.790Z,1.88
2022-10-24T21:13:21.499Z,1.70
2022-10-24T21:16:07.189Z,2.13
2022-10-24T21:18:52.717Z,1.98
2022-10-24T21:21:38.620Z,1.75
2022-10-24T21:24:24.073Z,1.98
2022-10-24T21:27:09.765Z,2.13
2022-10-24T21:29:55.505Z,2.03
2022-10-24T21:32:41.256Z,2.08
2022-10-24T21:35:26.752Z,2.20
2022-10-24T21:38:12.068Z,1.95
2022-10-24T21:41:09.840Z,1.90
2022-10-24T21:43:55.544Z,2.55
2022-10-24T21:46:41.390Z,2.30
2022-10-24T21:49:26.721Z,2.35
2022-10-24T21:52:12.423Z,2.95
2022-10-24T21:54:58.066Z,2.90
2022-10-24T21:57:43.535Z,2.50
2022-10-24T22:00:29.196Z,2.22
2022-10-24T22:03:14.595Z,2.53
2022-10-24T22:06:00.115Z,2.85
2022-10-24T22:08:47.604Z,2.78
2022-10-24T22:11:34.819Z,2.50
2022-10-24T22:14:20.077Z,2.80
2022-10-24T22:17:05.595Z,2.55
2022-10-24T22:19:51.156Z,2.25
2022-10-24T22:22:36.664Z,2.40
2022-10-24T22:25:21.983Z,2.50
2022-10-24T22:28:07.712Z,2.53
2022-10-24T22:30:53.331Z,2.72
2022-10-24T22:33:40.152Z,3.10
2022-10-24T22:36:38.572Z,2.60
2022-10-24T22:39:25.765Z,1.92
2022-10-24T22:42:14.769Z,2.55
2022-10-24T22:45:03.419Z,2.15
2022-10-24T22:48:11.020Z,2.00
2022-10-24T22:50:57.081Z,2.35
2022-10-24T22:53:43.550Z,1.90
2022-10-24T22:56:33.313Z,2.08
2022-10-24T22:59:18.567Z,1.98
2022-10-24T23:02:33.777Z,1.90
2022-10-24T23:05:30.344Z,1.80
2022-10-24T23:08:30.863Z,2.20
2022-10-24T23:11:16.674Z,1.75
2022-10-24T23:14:02.330Z,1.90
2022-10-24T23:16:59.122Z,1.80
2022-10-24T23:19:45.830Z,1.60
2022-10-24T23:22:32.536Z,1.60
2022-10-24T23:25:18.036Z,2.08
2022-10-24T23:28:13.441Z,2.03
2022-10-24T23:30:59.004Z,1.90
2022-10-24T23:33:44.886Z,2.35
2022-10-24T23:36:30.579Z,2.53
2022-10-24T23:39:16.416Z,2.17
2022-10-24T23:42:02.456Z,2.72
2022-10-24T23:44:47.784Z,2.75
2022-10-24T23:50:46.197Z,2.88
2022-10-24T23:53:50.676Z,2.40
2022-10-24T23:56:36.380Z,2.40
2022-10-24T23:59:21.503Z,2.15
